createdAt,value
2023-04-11T00:02:08.351Z,68.44
2023-04-11T00:04:39.273Z,68.08
2023-04-11T00:07:08.010Z,68.06
2023-04-11T00:09:36.642Z,68.70
2023-04-11T00:12:04.854Z,68.91
2023-04-11T00:14:34.599Z,68.73
2023-04-11T00:17:02.834Z,69.02
2023-04-11T00:19:35.762Z,68.92
2023-04-11T00:22:05.915Z,68.90
2023-04-11T00:24:34.169Z,68.87
2023-04-11T00:27:02.739Z,68.72
2023-04-11T00:29:34.580Z,68.38
2023-04-11T00:32:03.831Z,67.87
2023-04-11T00:34:36.921Z,68.10
2023-04-11T00:37:05.229Z,68.33
2023-04-11T00:39:36.129Z,68.30
2023-04-11T00:42:08.494Z,68.52
2023-04-11T00:44:37.270Z,68.27
2023-04-11T00:47:07.636Z,68.43
2023-04-11T00:49:36.499Z,68.89
2023-04-11T00:52:06.230Z,69.17
2023-04-11T00:54:34.731Z,69.28
2023-04-11T00:57:03.950Z,69.72
2023-04-11T00:59:33.164Z,70.18
2023-04-11T01:02:02.110Z,70.07
2023-04-11T01:04:30.847Z,70.00
2023-04-11T01:07:04.346Z,69.93
2023-04-11T01:09:34.665Z,69.75
2023-04-11T01:12:06.146Z,69.74
2023-04-11T01:14:34.644Z,69.42
2023-04-11T01:17:04.369Z,70.02
2023-04-11T01:19:35.738Z,70.60
2023-04-11T01:22:04.239Z,70.72
2023-04-11T01:24:33.422Z,70.33
2023-04-11T01:27:04.183Z,70.64
2023-04-11T01:29:32.518Z,70.11
2023-04-11T01:32:02.250Z,70.19
2023-04-11T01:34:33.477Z,70.15
2023-04-11T01:37:03.633Z,69.90
2023-04-11T01:39:32.938Z,70.18
2023-04-11T01:42:02.981Z,69.99
2023-04-11T01:44:34.272Z,69.78
2023-04-11T01:47:05.190Z,69.88
2023-04-11T01:49:33.808Z,70.11
2023-04-11T01:52:03.312Z,69.98
2023-04-11T01:54:31.602Z,69.64
2023-04-11T01:57:00.138Z,69.45
2023-04-11T01:59:32.323Z,69.92
2023-04-11T02:02:02.160Z,69.75
2023-04-11T02:04:31.996Z,69.80
2023-04-11T02:07:01.280Z,69.75
2023-04-11T02:09:31.772Z,69.56
2023-04-11T02:12:01.172Z,69.83
2023-04-11T02:14:44.613Z,70.21
2023-04-11T02:17:14.251Z,69.85
2023-04-11T02:19:45.621Z,69.67
2023-04-11T02:22:17.128Z,70.00
2023-04-11T02:24:46.660Z,69.40
2023-04-11T02:27:15.011Z,69.60
2023-04-11T02:29:43.188Z,70.19
2023-04-11T02:32:11.660Z,70.74
2023-04-11T02:34:40.260Z,71.67
2023-04-11T02:37:28.316Z,73.48
2023-04-11T02:39:58.688Z,73.34
2023-04-11T02:42:26.878Z,73.22
2023-04-11T02:44:56.302Z,72.99
2023-04-11T02:47:29.509Z,73.60
2023-04-11T02:50:01.168Z,73.42
2023-04-11T02:52:33.875Z,73.72
2023-04-11T02:55:02.455Z,73.64
2023-04-11T02:57:32.645Z,73.95
2023-04-11T03:00:00.944Z,74.36
2023-04-11T03:02:42.671Z,73.31
2023-04-11T03:05:11.679Z,73.61
2023-04-11T03:07:44.854Z,72.98
2023-04-11T03:10:13.209Z,72.75
2023-04-11T03:12:41.553Z,72.27
2023-04-11T03:15:10.850Z,72.38
2023-04-11T03:17:39.030Z,72.16
2023-04-11T03:20:08.331Z,72.05
2023-04-11T03:22:36.766Z,72.17
2023-04-11T03:25:06.577Z,72.13
2023-04-11T03:27:35.686Z,72.70
2023-04-11T03:30:08.487Z,72.97
2023-04-11T03:32:44.511Z,72.77
2023-04-11T03:35:14.989Z,73.12
2023-04-11T03:37:51.159Z,73.19
2023-04-11T03:40:21.037Z,74.79
2023-04-11T03:42:53.655Z,75.03
2023-04-11T03:45:25.061Z,74.72
2023-04-11T03:47:53.566Z,74.65
2023-04-11T03:50:23.744Z,74.52
2023-04-11T03:52:56.024Z,75.39
2023-04-11T03:55:24.251Z,74.86
2023-04-11T03:57:54.069Z,75.32
2023-04-11T04:00:24.106Z,75.59
2023-04-11T04:03:04.479Z,76.12
2023-04-11T04:05:33.123Z,76.20
2023-04-11T04:08:01.810Z,76.57
2023-04-11T04:10:42.451Z,76.94
2023-04-11T04:13:11.738Z,76.47
2023-04-11T04:15:51.621Z,76.13
2023-04-11T04:18:23.416Z,75.03
2023-04-11T04:20:54.857Z,74.34
2023-04-11T04:23:24.051Z,74.60
2023-04-11T04:26:13.274Z,74.12
2023-04-11T04:28:48.264Z,74.16
2023-04-11T04:31:25.801Z,73.70
2023-04-11T04:34:11.778Z,74.37
2023-04-11T04:36:48.103Z,74.57
2023-04-11T04:39:21.086Z,75.01
2023-04-11T04:42:01.545Z,75.24
2023-04-11T04:44:34.836Z,75.65
2023-04-11T04:47:07.424Z,75.40
2023-04-11T04:49:35.536Z,74.78
2023-04-11T04:52:04.396Z,74.32
2023-04-11T04:54:33.138Z,74.07
2023-04-11T04:57:03.230Z,73.46
2023-04-11T04:59:32.241Z,73.03
2023-04-11T05:02:08.292Z,72.34
2023-04-11T05:04:36.669Z,72.26
2023-04-11T05:07:05.174Z,72.28
2023-04-11T05:09:34.803Z,72.06
2023-04-11T05:12:15.035Z,71.51
2023-04-11T05:14:43.485Z,71.27
2023-04-11T05:17:11.911Z,71.27
2023-04-11T05:19:44.131Z,70.74
2023-04-11T05:22:13.142Z,70.49
2023-04-11T05:24:45.387Z,70.28
2023-04-11T05:27:15.845Z,69.96
2023-04-11T05:29:44.511Z,69.69
2023-04-11T05:32:15.664Z,69.57
2023-04-11T05:34:53.904Z,69.32
2023-04-11T05:37:44.860Z,69.44
2023-04-11T05:40:13.817Z,69.38
2023-04-11T05:42:43.016Z,68.67
2023-04-11T05:45:11.578Z,68.61
2023-04-11T05:47:49.767Z,68.42
2023-04-11T05:50:20.050Z,68.00
2023-04-11T05:53:10.762Z,67.70
2023-04-11T05:55:39.905Z,67.79
2023-04-11T05:58:11.654Z,67.60
2023-04-11T06:00:40.247Z,66.76
2023-04-11T06:03:09.715Z,66.04
2023-04-11T06:05:40.763Z,66.35
2023-04-11T06:08:10.662Z,65.35
2023-04-11T06:10:39.027Z,65.07
2023-04-11T06:13:07.488Z,64.48
2023-04-11T06:15:37.134Z,64.19
2023-04-11T06:18:05.655Z,62.81
2023-04-11T06:20:33.883Z,62.64
2023-04-11T06:23:03.634Z,61.07
2023-04-11T06:25:32.968Z,61.29
2023-04-11T06:28:02.605Z,60.30
2023-04-11T06:30:32.247Z,59.14
2023-04-11T06:33:00.579Z,58.18
2023-04-11T06:35:28.908Z,57.98
2023-04-11T06:37:57.226Z,57.78
2023-04-11T06:40:25.450Z,56.99
2023-04-11T06:42:55.448Z,56.25
2023-04-11T06:45:25.415Z,54.40
2023-04-11T06:47:53.719Z,53.70
2023-04-11T06:50:22.096Z,53.56
2023-04-11T06:52:52.377Z,52.80
2023-04-11T06:55:23.147Z,52.46
2023-04-11T06:57:52.764Z,52.39
2023-04-11T07:00:21.475Z,52.56
2023-04-11T07:02:49.857Z,52.45
2023-04-11T07:05:19.694Z,52.16
2023-04-11T07:07:48.198Z,52.21
2023-04-11T07:10:16.424Z,51.96
2023-04-11T07:12:44.442Z,51.84
2023-04-11T07:15:12.554Z,51.75
2023-04-11T07:17:40.611Z,50.60
2023-04-11T07:20:11.797Z,50.32
2023-04-11T07:22:43.465Z,50.23
2023-04-11T07:25:12.055Z,49.64
2023-04-11T07:27:44.074Z,49.11
2023-04-11T07:30:12.979Z,49.02
2023-04-11T07:32:41.209Z,48.84
2023-04-11T07:35:10.680Z,48.17
2023-04-11T07:37:38.972Z,47.52
2023-04-11T07:40:12.150Z,46.30
2023-04-11T07:42:41.355Z,46.57
2023-04-11T07:45:09.699Z,45.83
2023-04-11T07:47:38.323Z,44.96
2023-04-11T07:50:07.508Z,45.17
2023-04-11T07:52:35.761Z,44.18
2023-04-11T07:55:05.976Z,43.68
2023-04-11T07:57:34.144Z,42.97
2023-04-11T08:00:04.602Z,42.94
2023-04-11T08:02:41.058Z,42.95
2023-04-11T08:05:11.326Z,42.09
2023-04-11T08:07:42.138Z,40.43
2023-04-11T08:10:10.951Z,40.33
2023-04-11T08:12:48.377Z,40.46
2023-04-11T08:15:19.386Z,37.70
2023-04-11T08:17:50.097Z,37.36
2023-04-11T08:20:19.459Z,35.67
2023-04-11T08:23:25.218Z,35.91
2023-04-11T08:25:53.655Z,34.04
2023-04-11T08:28:25.735Z,32.32
2023-04-11T08:30:58.491Z,31.76
2023-04-11T08:33:27.699Z,30.14
2023-04-11T08:35:56.082Z,29.01
2023-04-11T08:38:46.007Z,29.35
2023-04-11T08:41:14.812Z,31.19
2023-04-11T08:43:45.522Z,30.94
2023-04-11T08:46:14.047Z,27.41
2023-04-11T08:48:42.328Z,27.54
2023-04-11T08:51:15.394Z,26.18
2023-04-11T08:53:43.869Z,28.49
2023-04-11T08:56:17.411Z,24.32
2023-04-11T08:58:46.574Z,24.73
2023-04-11T09:01:32.788Z,25.18
2023-04-11T09:04:05.744Z,24.56
2023-04-11T09:06:35.107Z,23.59
2023-04-11T09:09:07.273Z,22.70
2023-04-11T09:11:56.231Z,21.47
2023-04-11T09:14:26.442Z,23.12
2023-04-11T09:16:56.785Z,21.99
2023-04-11T09:19:27.847Z,21.88
2023-04-11T09:22:00.737Z,20.10
2023-04-11T09:24:30.360Z,21.09
2023-04-11T09:27:17.000Z,21.61
2023-04-11T09:29:48.498Z,21.61
2023-04-11T09:32:34.586Z,20.13
2023-04-11T09:35:17.356Z,20.17
2023-04-11T09:37:54.151Z,20.08
2023-04-11T09:40:32.594Z,19.96
2023-04-11T09:43:03.788Z,21.06
2023-04-11T09:45:38.482Z,21.07
2023-04-11T09:48:13.922Z,21.96
2023-04-11T09:50:43.376Z,22.11
2023-04-11T09:53:11.777Z,21.24
2023-04-11T09:55:41.010Z,20.59
2023-04-11T09:58:12.479Z,21.17
2023-04-11T10:00:41.815Z,20.89
2023-04-11T10:03:10.152Z,20.52
2023-04-11T10:05:39.115Z,21.46
2023-04-11T10:08:24.665Z,20.24
2023-04-11T10:10:54.467Z,20.46
2023-04-11T10:13:41.048Z,20.64
2023-04-11T10:16:15.055Z,21.04
2023-04-11T10:18:52.292Z,21.00
2023-04-11T10:21:27.803Z,21.51
2023-04-11T10:24:21.959Z,20.98
2023-04-11T10:27:01.096Z,20.91
2023-04-11T10:29:41.074Z,20.93
2023-04-11T10:32:17.537Z,21.05
2023-04-11T10:35:21.858Z,21.22
2023-04-11T10:37:50.711Z,21.51
2023-04-11T10:40:20.872Z,21.39
2023-04-11T10:42:49.463Z,21.79
2023-04-11T10:45:27.285Z,22.04
2023-04-11T10:48:05.657Z,21.63
2023-04-11T10:50:41.152Z,21.64
2023-04-11T10:53:50.563Z,21.15
2023-04-11T10:56:44.265Z,21.12
2023-04-11T10:59:31.251Z,19.99
2023-04-11T11:02:03.077Z,19.53
2023-04-11T11:04:57.786Z,19.23
2023-04-11T11:07:29.183Z,19.40
2023-04-11T11:09:58.874Z,19.35
2023-04-11T11:12:27.296Z,19.82
2023-04-11T11:15:19.447Z,19.38
2023-04-11T11:17:49.403Z,19.53
2023-04-11T11:20:21.777Z,20.16
2023-04-11T11:23:11.507Z,19.15
2023-04-11T11:25:46.055Z,19.55
2023-04-11T11:28:14.509Z,19.57
2023-04-11T11:30:55.773Z,20.39
2023-04-11T11:33:26.853Z,19.30
2023-04-11T11:36:04.930Z,19.50
2023-04-11T11:38:33.487Z,18.46
2023-04-11T11:41:02.947Z,19.47
2023-04-11T11:43:36.459Z,18.43
2023-04-11T11:46:15.622Z,18.84
2023-04-11T11:48:59.896Z,19.14
2023-04-11T11:51:43.129Z,18.90
2023-04-11T11:54:12.841Z,19.60
2023-04-11T11:57:00.745Z,19.99
2023-04-11T11:59:29.011Z,20.65
2023-04-11T12:01:57.244Z,20.44
2023-04-11T12:04:27.693Z,21.15
2023-04-11T12:06:57.628Z,21.32
2023-04-11T12:09:31.337Z,21.39
2023-04-11T12:12:02.459Z,21.42
2023-04-11T12:14:30.866Z,21.68
2023-04-11T12:17:01.776Z,21.62
2023-04-11T12:19:31.126Z,22.05
2023-04-11T12:22:02.144Z,21.90
2023-04-11T12:24:30.451Z,22.09
2023-04-11T12:27:06.895Z,22.15
2023-04-11T12:29:36.412Z,22.08
2023-04-11T12:32:04.914Z,22.01
2023-04-11T12:34:34.221Z,21.87
2023-04-11T12:37:02.584Z,21.92
2023-04-11T12:39:32.090Z,22.30
2023-04-11T12:42:00.214Z,22.84
2023-04-11T12:44:28.580Z,23.15
2023-04-11T12:46:56.793Z,23.52
2023-04-11T12:49:29.094Z,23.46
2023-04-11T12:51:57.820Z,23.36
2023-04-11T12:54:26.157Z,23.60
2023-04-11T12:56:54.548Z,23.60
2023-04-11T12:59:23.163Z,23.61
2023-04-11T13:01:51.758Z,23.35
2023-04-11T13:04:21.479Z,23.02
2023-04-11T13:06:52.551Z,23.53
2023-04-11T13:09:21.202Z,23.76
2023-04-11T13:11:52.806Z,23.63
2023-04-11T13:14:22.444Z,23.97
2023-04-11T13:16:52.076Z,24.07
2023-04-11T13:19:22.514Z,24.14
2023-04-11T13:21:51.152Z,24.09
2023-04-11T13:24:19.679Z,24.09
2023-04-11T13:26:48.434Z,24.64
2023-04-11T13:29:16.808Z,24.36
2023-04-11T13:31:45.303Z,24.02
2023-04-11T13:34:13.640Z,24.09
2023-04-11T13:36:44.263Z,24.33
2023-04-11T13:39:15.296Z,24.41
2023-04-11T13:41:44.923Z,24.23
2023-04-11T13:52:49.327Z,24.12
2023-04-11T13:55:35.793Z,23.96
2023-04-11T14:06:43.222Z,24.17
2023-04-11T14:17:34.857Z,24.54
2023-04-11T14:20:58.978Z,24.90
2023-04-11T14:27:48.024Z,25.78
2023-04-11T14:30:44.409Z,26.13
2023-04-11T14:37:37.730Z,27.77
2023-04-11T14:41:27.796Z,27.75
2023-04-11T14:48:13.662Z,28.56
2023-04-11T14:51:23.522Z,28.80
2023-04-11T14:58:10.249Z,29.56
2023-04-11T15:01:15.878Z,29.51
2023-04-11T15:12:01.369Z,30.50
2023-04-11T15:18:47.888Z,30.80
2023-04-11T15:21:52.542Z,30.26
2023-04-11T15:28:40.848Z,30.83
2023-04-11T15:31:43.229Z,30.83
2023-04-11T15:38:30.725Z,30.60
2023-04-11T15:49:14.982Z,31.19
2023-04-11T15:52:21.490Z,31.11
2023-04-11T15:59:13.224Z,31.44
2023-04-11T16:02:09.158Z,31.46
2023-04-11T16:13:14.469Z,31.95
2023-04-11T16:24:11.110Z,32.90
2023-04-11T16:35:07.250Z,33.37
2023-04-11T16:46:02.010Z,34.11
2023-04-11T17:00:43.865Z,35.34
2023-04-11T17:03:33.633Z,35.27
2023-04-11T17:14:38.330Z,36.07
2023-04-11T17:17:34.273Z,36.49
2023-04-11T17:28:42.981Z,37.33
2023-04-11T17:32:07.255Z,37.68
2023-04-11T17:38:54.838Z,37.98
2023-04-11T17:45:42.747Z,38.24
2023-04-11T18:00:35.001Z,39.95
2023-04-11T18:03:44.078Z,40.20
2023-04-11T18:14:49.146Z,41.16
2023-04-11T18:18:00.519Z,41.73
2023-04-11T18:24:52.463Z,42.34
2023-04-11T18:31:44.062Z,42.47
2023-04-11T18:42:37.186Z,42.34
2023-04-11T18:46:03.094Z,42.84
2023-04-11T18:57:14.499Z,43.19
2023-04-11T19:04:03.536Z,43.20
2023-04-11T19:23:47.228Z,44.43
2023-04-11T19:38:55.897Z,45.31
2023-04-11T19:43:48.072Z,45.51
2023-04-11T19:46:17.780Z,46.05
2023-04-11T19:48:47.130Z,46.50
2023-04-11T19:51:18.461Z,46.30
2023-04-11T19:53:50.050Z,46.47
2023-04-11T19:56:18.488Z,46.42
2023-04-11T19:58:46.841Z,46.92
2023-04-11T20:01:17.209Z,46.54
2023-04-11T20:03:47.149Z,47.14
2023-04-11T20:06:15.660Z,47.53
2023-04-11T20:08:44.001Z,47.46
2023-04-11T20:11:15.869Z,47.62
2023-04-11T20:13:43.986Z,47.14
2023-04-11T20:16:14.988Z,48.07
2023-04-11T20:18:43.439Z,48.06
2023-04-11T20:21:12.211Z,48.12
2023-04-11T20:23:42.189Z,47.88
2023-04-11T20:26:10.581Z,48.28
2023-04-11T20:28:39.962Z,47.86
2023-04-11T20:31:08.198Z,48.47
2023-04-11T20:33:36.360Z,48.65
2023-04-11T20:36:05.310Z,48.38
2023-04-11T20:38:35.002Z,48.29
2023-04-11T20:41:04.081Z,48.98
2023-04-11T20:43:33.795Z,49.47
2023-04-11T20:46:08.448Z,49.17
2023-04-11T20:48:37.791Z,49.04
2023-04-11T20:51:08.230Z,49.43
2023-04-11T20:53:38.867Z,49.61
2023-04-11T20:56:07.284Z,49.43
2023-04-11T20:58:37.387Z,49.51
2023-04-11T21:01:06.159Z,49.69
2023-04-11T21:03:37.787Z,49.51
2023-04-11T21:06:07.788Z,49.67
2023-04-11T21:08:37.633Z,49.47
2023-04-11T21:11:06.606Z,49.87
2023-04-11T21:13:34.956Z,50.02
2023-04-11T21:16:04.375Z,50.02
2023-04-11T21:18:33.099Z,50.12
2023-04-11T21:21:05.923Z,50.27
2023-04-11T21:23:36.742Z,50.08
2023-04-11T21:26:05.505Z,50.54
2023-04-11T21:28:34.397Z,50.04
2023-04-11T21:31:02.931Z,50.54
2023-04-11T21:33:32.966Z,50.16
2023-04-11T21:36:01.822Z,50.47
2023-04-11T21:38:30.456Z,50.68
2023-04-11T21:40:59.841Z,50.47
2023-04-11T21:43:28.827Z,50.38
2023-04-11T21:45:57.326Z,50.30
2023-04-11T21:48:25.336Z,50.27
2023-04-11T21:50:53.937Z,50.49
2023-04-11T21:53:21.937Z,50.72
2023-04-11T21:55:50.172Z,50.50
2023-04-11T21:58:29.149Z,50.01
2023-04-11T22:01:00.626Z,50.43
2023-04-11T22:03:29.733Z,51.38
2023-04-11T22:06:01.615Z,51.48
2023-04-11T22:08:31.884Z,51.43
2023-04-11T22:11:04.309Z,51.60
2023-04-11T22:13:36.194Z,51.66
2023-04-11T22:16:05.787Z,51.66
2023-04-11T22:18:50.838Z,51.59
2023-04-11T22:21:20.531Z,51.89
2023-04-11T22:23:54.685Z,52.00
2023-04-11T22:26:34.970Z,52.11
2023-04-11T22:29:05.387Z,51.86
2023-04-11T22:31:39.055Z,51.92
2023-04-11T22:34:09.589Z,53.12
2023-04-11T22:36:37.899Z,53.01
2023-04-11T22:39:10.520Z,52.90
2023-04-11T22:41:39.191Z,53.35
2023-04-11T22:44:07.454Z,54.16
2023-04-11T22:46:38.998Z,54.26
2023-04-11T22:49:09.923Z,54.30
2023-04-11T22:51:40.831Z,54.17
2023-04-11T22:54:16.135Z,55.33
2023-04-11T22:56:44.324Z,55.66
2023-04-11T22:59:12.368Z,54.99
2023-04-11T23:01:44.184Z,55.38
2023-04-11T23:04:13.637Z,56.06
2023-04-11T23:06:41.895Z,56.52
2023-04-11T23:09:10.343Z,56.68
2023-04-11T23:11:39.330Z,56.77
2023-04-11T23:14:07.468Z,57.21
2023-04-11T23:16:35.743Z,57.50
2023-04-11T23:19:04.145Z,57.23
2023-04-11T23:21:33.275Z,57.76
2023-04-11T23:24:21.528Z,57.68
2023-04-11T23:26:49.653Z,58.06
2023-04-11T23:29:18.494Z,59.60
2023-04-11T23:31:48.388Z,58.70
2023-04-11T23:34:16.611Z,59.12
2023-04-11T23:36:47.158Z,58.87
2023-04-11T23:39:35.581Z,59.37
2023-04-11T23:42:03.828Z,59.32
2023-04-11T23:44:31.985Z,59.37
2023-04-11T23:47:00.760Z,59.08
2023-04-11T23:49:29.014Z,59.12
2023-04-11T23:51:59.268Z,58.76
2023-04-11T23:54:30.501Z,59.63
2023-04-11T23:56:58.901Z,59.77
2023-04-11T23:59:27.155Z,59.36
